createdAt,value
2019-04-14T00:00:12.237Z,25
2019-04-14T00:05:14.759Z,23
2019-04-14T00:10:18.120Z,23
2019-04-14T00:15:29.113Z,25
2019-04-14T00:20:22.818Z,25
2019-04-14T00:25:24.657Z,22
2019-04-14T00:30:27.286Z,25
2019-04-14T00:35:29.882Z,23
2019-04-14T00:40:32.984Z,23
2019-04-14T00:45:42.498Z,26
2019-04-14T00:50:36.766Z,23
2019-04-14T00:55:40.078Z,24
2019-04-14T01:00:42.688Z,22
2019-04-14T01:05:44.157Z,24
2019-04-14T01:10:47.584Z,21
2019-04-14T01:15:58.351Z,23
2019-04-14T01:20:51.597Z,23
2019-04-14T01:25:54.238Z,21
2019-04-14T01:30:56.655Z,22
2019-04-14T01:35:59.597Z,23
2019-04-14T01:41:02.108Z,21
2019-04-14T01:46:11.377Z,26
2019-04-14T01:51:07.042Z,24
2019-04-14T01:56:08.744Z,20
2019-04-14T02:01:11.225Z,23
2019-04-14T02:06:13.677Z,20
2019-04-14T02:11:16.089Z,22
2019-04-14T02:16:28.658Z,24
2019-04-14T02:21:21.573Z,24
2019-04-14T02:26:24.046Z,21
2019-04-14T02:31:43.088Z,22
2019-04-14T02:36:56.112Z,24
2019-04-14T02:57:09.488Z,24
2019-04-14T03:12:09.002Z,24
2019-04-14T03:17:20.903Z,24
2019-04-14T03:22:19.582Z,24
2019-04-14T03:27:22.111Z,24
2019-04-14T03:32:35.557Z,25
2019-04-14T03:42:28.447Z,21
2019-04-14T03:47:24.721Z,23
2019-04-14T03:52:47.579Z,24
2019-04-14T04:02:10.143Z,24
2019-04-14T04:07:12.584Z,21
2019-04-14T04:12:16.020Z,24
2019-04-14T04:17:17.506Z,24
2019-04-14T04:22:19.950Z,22
2019-04-14T04:27:22.438Z,25
2019-04-14T04:32:25.383Z,25
2019-04-14T04:37:27.899Z,25
2019-04-14T04:42:30.801Z,27
2019-04-14T04:47:33.690Z,24
2019-04-14T04:52:34.699Z,26
2019-04-14T04:57:37.407Z,26
2019-04-14T05:02:39.737Z,24
2019-04-14T05:07:42.628Z,27
2019-04-14T05:12:45.629Z,26
2019-04-14T05:17:47.483Z,25
2019-04-14T05:22:50.677Z,26
2019-04-14T05:27:51.884Z,25
2019-04-14T05:32:54.425Z,28
2019-04-14T05:37:57.284Z,30
2019-04-14T05:43:00.224Z,30
2019-04-14T05:48:03.193Z,28
2019-04-14T05:53:04.375Z,28
2019-04-14T05:58:07.795Z,27
2019-04-14T06:03:10.174Z,29
2019-04-14T06:08:11.607Z,30
2019-04-14T06:13:13.997Z,31
2019-04-14T06:18:16.895Z,31
2019-04-14T06:23:18.950Z,30
2019-04-14T06:28:21.445Z,32
2019-04-14T06:33:23.830Z,36
2019-04-14T06:38:26.375Z,33
2019-04-14T06:43:28.787Z,33
2019-04-14T06:48:31.673Z,41
2019-04-14T06:53:33.684Z,37
2019-04-14T06:58:36.134Z,38
2019-04-14T07:03:38.691Z,35
2019-04-14T07:08:41.182Z,34
2019-04-14T07:13:47.786Z,35
2019-04-14T07:18:46.509Z,37
2019-04-14T07:23:48.498Z,39
2019-04-14T07:28:56.391Z,33
2019-04-14T07:33:53.478Z,33
2019-04-14T07:38:55.870Z,33
2019-04-14T07:43:58.437Z,44
2019-04-14T07:49:01.089Z,31
2019-04-14T07:54:03.229Z,28
2019-04-14T07:59:05.684Z,25
2019-04-14T08:04:08.201Z,25
2019-04-14T08:09:10.658Z,24
2019-04-14T08:14:13.080Z,21
2019-04-14T08:19:16.027Z,23
2019-04-14T08:24:18.014Z,20
2019-04-14T08:29:20.469Z,17
2019-04-14T08:34:22.977Z,16
2019-04-14T08:39:25.486Z,13
2019-04-14T08:44:27.874Z,12
2019-04-14T08:49:30.435Z,10
2019-04-14T08:54:32.791Z,11
2019-04-14T08:59:35.345Z,8
2019-04-14T09:04:38.181Z,7
2019-04-14T09:09:40.202Z,8
2019-04-14T09:14:42.706Z,6
2019-04-14T09:19:45.212Z,7
2019-04-14T09:24:47.587Z,11
2019-04-14T09:29:52.171Z,6
2019-04-14T09:34:52.822Z,7
2019-04-14T09:39:55.055Z,6
2019-04-14T09:44:57.410Z,5
2019-04-14T09:49:59.966Z,5
2019-04-14T09:55:02.347Z,5
2019-04-14T10:00:04.863Z,5
2019-04-14T10:05:07.618Z,5
2019-04-14T10:10:09.702Z,3
2019-04-14T10:15:12.209Z,8
2019-04-14T10:20:14.691Z,8
2019-04-14T10:30:19.513Z,6
2019-04-14T10:35:22.466Z,5
2019-04-14T10:40:24.459Z,4
2019-04-14T10:45:26.893Z,6
2019-04-14T10:50:30.903Z,5
2019-04-14T10:55:31.800Z,6
2019-04-14T11:00:34.294Z,4
2019-04-14T11:05:36.721Z,4
2019-04-14T11:10:39.220Z,4
2019-04-14T11:15:41.696Z,4
2019-04-14T11:20:44.171Z,4
2019-04-14T11:25:46.573Z,6
2019-04-14T11:30:49.018Z,4
2019-04-14T11:35:51.561Z,6
2019-04-14T11:40:53.943Z,4
2019-04-14T11:45:56.472Z,5
2019-04-14T11:50:58.990Z,4
2019-04-14T11:56:01.294Z,4
2019-04-14T12:01:03.774Z,4
2019-04-14T12:06:06.211Z,4
2019-04-14T12:11:08.668Z,4
2019-04-14T12:16:11.156Z,4
2019-04-14T12:21:13.598Z,4
2019-04-14T12:26:16.040Z,4
2019-04-14T12:31:19.525Z,4
2019-04-14T12:36:21.001Z,5
2019-04-14T12:41:24.155Z,4
2019-04-14T12:46:25.890Z,5
2019-04-14T12:51:28.452Z,4
2019-04-14T12:56:30.875Z,4
2019-04-14T13:01:33.253Z,4
2019-04-14T13:06:35.829Z,4
2019-04-14T13:11:38.298Z,4
2019-04-14T13:16:40.681Z,4
2019-04-14T13:21:43.443Z,5
2019-04-14T13:26:45.616Z,5
2019-04-14T13:31:48.076Z,5
2019-04-14T13:36:50.647Z,6
2019-04-14T13:41:52.934Z,11
2019-04-14T13:46:55.368Z,9
2019-04-14T13:51:58.379Z,15
2019-04-14T13:57:00.288Z,15
2019-04-14T14:02:02.768Z,14
2019-04-14T14:07:05.299Z,11
2019-04-14T14:12:07.675Z,10
2019-04-14T14:17:10.125Z,9
2019-04-14T14:22:14.091Z,10
2019-04-14T14:27:15.067Z,11
2019-04-14T14:32:17.491Z,13
2019-04-14T14:37:19.941Z,13
2019-04-14T14:42:22.390Z,11
2019-04-14T14:47:24.861Z,13
2019-04-14T14:52:27.411Z,12
2019-04-14T14:57:29.792Z,13
2019-04-14T15:02:32.239Z,15
2019-04-14T15:07:34.721Z,14
2019-04-14T15:12:37.147Z,16
2019-04-14T15:17:39.611Z,16
2019-04-14T15:22:42.488Z,19
2019-04-14T15:27:44.527Z,22
2019-04-14T15:32:47.081Z,23
2019-04-14T15:37:49.472Z,23
2019-04-14T15:42:51.872Z,24
2019-04-14T15:47:54.393Z,25
2019-04-14T15:52:56.879Z,26
2019-04-14T15:57:59.252Z,26
2019-04-14T16:03:01.710Z,34
2019-04-14T16:08:04.207Z,27
2019-04-14T16:13:06.940Z,27
2019-04-14T16:18:09.087Z,30
2019-04-14T16:33:16.527Z,26
2019-04-14T16:38:18.985Z,27
2019-04-14T16:43:21.417Z,27
2019-04-14T16:48:23.825Z,28
2019-04-14T16:53:26.307Z,26
2019-04-14T16:58:29.197Z,28
2019-04-14T17:03:31.210Z,30
2019-04-14T17:08:33.696Z,33
2019-04-14T17:13:36.130Z,30
2019-04-14T17:18:38.645Z,27
2019-04-14T17:23:41.035Z,30
2019-04-14T17:28:43.836Z,33
2019-04-14T17:33:45.942Z,32
2019-04-14T17:38:48.442Z,32
2019-04-14T17:43:50.870Z,29
2019-04-14T17:48:53.354Z,35
2019-04-14T17:53:55.815Z,32
2019-04-14T17:58:58.406Z,34
2019-04-14T18:04:00.735Z,34
2019-04-14T18:09:03.281Z,36
2019-04-14T18:14:05.657Z,33
2019-04-14T18:19:08.104Z,36
2019-04-14T18:24:10.552Z,33
2019-04-14T18:29:13.363Z,41
2019-04-14T18:34:15.497Z,38
2019-04-14T18:39:18.027Z,37
2019-04-14T18:44:20.456Z,42
2019-04-14T18:49:22.896Z,38
2019-04-14T18:54:25.346Z,42
2019-04-14T18:59:28.185Z,46
2019-04-14T19:04:30.339Z,36
2019-04-14T19:09:32.821Z,40
2019-04-14T19:14:35.211Z,34
2019-04-14T19:19:37.651Z,43
2019-04-14T19:24:40.193Z,37
2019-04-14T19:29:42.689Z,37
2019-04-14T19:34:45.055Z,39
2019-04-14T19:39:47.493Z,44
2019-04-14T19:44:49.957Z,36
2019-04-14T19:49:52.407Z,33
2019-04-14T19:54:54.954Z,33
2019-04-14T20:04:59.901Z,35
2019-04-14T20:10:02.259Z,33
2019-04-14T20:15:04.732Z,36
2019-04-14T20:20:07.184Z,40
2019-04-14T20:25:09.653Z,44
2019-04-14T20:35:14.929Z,34
2019-04-14T20:40:17.063Z,34
2019-04-14T20:45:19.490Z,35
2019-04-14T20:50:22.246Z,40
2019-04-14T20:55:24.415Z,43
2019-04-14T21:00:27.025Z,37
2019-04-14T21:10:31.816Z,41
2019-04-14T21:15:34.252Z,45
2019-04-14T21:20:36.726Z,36
2019-04-14T21:25:39.166Z,40
2019-04-14T21:30:41.636Z,41
2019-04-14T21:35:44.106Z,39
2019-04-14T21:40:46.604Z,39
2019-04-14T21:45:49.047Z,38
2019-04-14T21:50:51.528Z,40
2019-04-14T21:55:53.991Z,41
2019-04-14T22:00:56.412Z,40
2019-04-14T22:05:58.879Z,37
2019-04-14T22:11:01.688Z,35
2019-04-14T22:16:03.769Z,38
2019-04-14T22:21:06.332Z,32
2019-04-14T22:26:08.729Z,34
2019-04-14T22:31:11.170Z,35
2019-04-14T22:36:13.691Z,34
2019-04-14T22:41:16.432Z,33
2019-04-14T22:46:18.570Z,31
2019-04-14T22:51:21.185Z,35
2019-04-14T22:56:23.520Z,34
2019-04-14T23:01:25.916Z,34
2019-04-14T23:06:28.605Z,32
2019-04-14T23:11:31.330Z,36
2019-04-14T23:16:33.320Z,35
2019-04-14T23:21:35.896Z,35
2019-04-14T23:26:51.349Z,34
2019-04-14T23:31:40.821Z,38
2019-04-14T23:36:43.254Z,35
2019-04-14T23:41:45.989Z,38
2019-04-14T23:46:48.135Z,38
2019-04-14T23:51:50.635Z,38
2019-04-14T23:57:04.630Z,35
